createdAt,value
2018-06-10T00:00:36.430Z,1002.85
2018-06-10T00:01:36.431Z,1002.84
2018-06-10T00:02:36.432Z,1002.83
2018-06-10T00:03:36.434Z,1002.78
2018-06-10T00:04:36.436Z,1002.75
2018-06-10T00:05:36.440Z,1002.72
2018-06-10T00:06:36.439Z,1002.68
2018-06-10T00:07:36.442Z,1002.65
2018-06-10T00:08:36.444Z,1002.62
2018-06-10T00:09:36.443Z,1002.59
2018-06-10T00:10:36.995Z,1002.60
2018-06-10T00:11:36.445Z,1002.60
2018-06-10T00:12:36.446Z,1002.61
2018-06-10T00:13:36.450Z,1002.59
2018-06-10T00:14:36.449Z,1002.62
2018-06-10T00:15:36.454Z,1002.65
2018-06-10T00:16:36.453Z,1002.67
2018-06-10T00:17:36.459Z,1002.67
2018-06-10T00:18:36.454Z,1002.67
2018-06-10T00:19:36.451Z,1002.68
2018-06-10T00:20:36.454Z,1002.67
2018-06-10T00:21:36.460Z,1002.69
2018-06-10T00:22:36.456Z,1002.67
2018-06-10T00:23:36.461Z,1002.71
2018-06-10T00:24:36.463Z,1002.73
2018-06-10T00:25:36.464Z,1002.81
2018-06-10T00:26:36.464Z,1002.83
2018-06-10T00:27:36.462Z,1002.90
2018-06-10T00:28:36.468Z,1002.96
2018-06-10T00:29:36.470Z,1002.98
2018-06-10T00:30:36.466Z,1003.06
2018-06-10T00:31:36.475Z,1003.05
2018-06-10T00:32:36.469Z,1003.04
2018-06-10T00:33:36.470Z,1002.99
2018-06-10T00:34:36.477Z,1002.97
2018-06-10T00:35:36.481Z,1002.98
2018-06-10T00:36:36.473Z,1002.95
2018-06-10T00:37:36.476Z,1002.93
2018-06-10T00:38:36.478Z,1002.94
2018-06-10T00:39:36.481Z,1002.93
2018-06-10T00:40:36.483Z,1002.96
2018-06-10T00:41:36.485Z,1003.02
2018-06-10T00:42:36.485Z,1003.02
2018-06-10T00:43:36.481Z,1003.08
2018-06-10T00:44:36.492Z,1003.09
2018-06-10T00:45:36.487Z,1003.13
2018-06-10T00:46:36.489Z,1003.12
2018-06-10T00:47:36.489Z,1003.15
2018-06-10T00:48:36.493Z,1003.22
2018-06-10T00:49:36.496Z,1003.19
2018-06-10T00:50:36.497Z,1003.19
2018-06-10T00:51:36.497Z,1003.20
2018-06-10T00:52:36.496Z,1003.22
2018-06-10T00:53:36.498Z,1003.24
2018-06-10T00:54:36.499Z,1003.21
2018-06-10T00:55:36.503Z,1003.27
2018-06-10T00:56:36.503Z,1003.21
2018-06-10T00:57:36.498Z,1003.26
2018-06-10T00:58:36.505Z,1003.27
2018-06-10T00:59:36.501Z,1003.25
2018-06-10T01:00:36.508Z,1003.25
2018-06-10T01:01:36.505Z,1003.28
2018-06-10T01:02:36.509Z,1003.30
2018-06-10T01:03:36.509Z,1003.33
2018-06-10T01:04:36.507Z,1003.31
2018-06-10T01:05:36.515Z,1003.32
2018-06-10T01:06:36.511Z,1003.37
2018-06-10T01:07:36.512Z,1003.38
2018-06-10T01:08:36.515Z,1003.34
2018-06-10T01:09:36.513Z,1003.36
2018-06-10T01:10:36.518Z,1003.34
2018-06-10T01:11:36.516Z,1003.32
2018-06-10T01:12:36.519Z,1003.33
2018-06-10T01:13:36.519Z,1003.36
2018-06-10T01:14:36.515Z,1003.39
2018-06-10T01:15:36.520Z,1003.34
2018-06-10T01:16:36.523Z,1003.30
2018-06-10T01:17:36.524Z,1003.36
2018-06-10T01:18:36.523Z,1003.34
2018-06-10T01:19:36.525Z,1003.32
2018-06-10T01:20:36.523Z,1003.36
2018-06-10T01:21:36.528Z,1003.36
2018-06-10T01:22:36.530Z,1003.36
2018-06-10T01:23:36.530Z,1003.33
2018-06-10T01:24:36.529Z,1003.32
2018-06-10T01:25:36.534Z,1003.34
2018-06-10T01:26:36.533Z,1003.30
2018-06-10T01:27:36.533Z,1003.26
2018-06-10T01:28:36.535Z,1003.24
2018-06-10T01:29:36.532Z,1003.21
2018-06-10T01:30:36.540Z,1003.21
2018-06-10T01:31:36.539Z,1003.25
2018-06-10T01:32:36.544Z,1003.24
2018-06-10T01:33:36.536Z,1003.31
2018-06-10T01:34:36.540Z,1003.30
2018-06-10T01:35:36.542Z,1003.31
2018-06-10T01:36:36.544Z,1003.28
2018-06-10T01:37:36.545Z,1003.30
2018-06-10T01:38:36.541Z,1003.28
2018-06-10T01:39:36.548Z,1003.29
2018-06-10T01:40:36.544Z,1003.25
2018-06-10T01:41:36.547Z,1003.22
2018-06-10T01:42:36.555Z,1003.18
2018-06-10T01:43:36.547Z,1003.16
2018-06-10T01:44:36.554Z,1003.17
2018-06-10T01:45:36.552Z,1003.16
2018-06-10T01:46:36.559Z,1003.13
2018-06-10T01:47:36.555Z,1003.14
2018-06-10T01:48:36.551Z,1003.11
2018-06-10T01:49:36.560Z,1003.09
2018-06-10T01:50:36.560Z,1003.12
2018-06-10T01:51:36.555Z,1003.08
2018-06-10T01:52:36.571Z,1003.05
2018-06-10T01:53:36.563Z,1003.05
2018-06-10T01:54:36.563Z,1003.00
2018-06-10T01:55:36.566Z,1003.00
2018-06-10T01:56:36.566Z,1002.98
2018-06-10T01:57:36.563Z,1003.00
2018-06-10T01:58:36.563Z,1002.97
2018-06-10T01:59:36.564Z,1003.01
2018-06-10T02:00:36.569Z,1002.99
2018-06-10T02:01:36.572Z,1002.96
2018-06-10T02:02:36.571Z,1002.98
2018-06-10T02:03:36.568Z,1003.01
2018-06-10T02:04:36.574Z,1003.00
2018-06-10T02:05:36.576Z,1002.96
2018-06-10T02:06:36.577Z,1002.91
2018-06-10T02:07:36.579Z,1002.92
2018-06-10T02:08:36.574Z,1002.90
2018-06-10T02:09:36.577Z,1002.93
2018-06-10T02:10:36.586Z,1002.93
2018-06-10T02:11:36.583Z,1002.93
2018-06-10T02:12:36.585Z,1002.93
2018-06-10T02:13:36.585Z,1002.91
2018-06-10T02:14:36.594Z,1002.91
2018-06-10T02:15:36.585Z,1002.94
2018-06-10T02:16:36.584Z,1002.95
2018-06-10T02:17:36.585Z,1002.96
2018-06-10T02:18:36.582Z,1002.95
2018-06-10T02:19:36.588Z,1003.00
2018-06-10T02:20:36.592Z,1002.98
2018-06-10T02:21:36.597Z,1003.00
2018-06-10T02:22:36.593Z,1002.99
2018-06-10T02:23:36.596Z,1003.00
2018-06-10T02:24:36.591Z,1002.99
2018-06-10T02:25:36.596Z,1002.98
2018-06-10T02:26:36.601Z,1003.03
2018-06-10T02:27:36.597Z,1003.00
2018-06-10T02:28:36.595Z,1003.00
2018-06-10T02:29:36.601Z,1003.03
2018-06-10T02:30:36.601Z,1002.98
2018-06-10T02:31:36.601Z,1003.03
2018-06-10T02:32:36.601Z,1003.04
2018-06-10T02:33:36.600Z,1002.99
2018-06-10T02:34:36.605Z,1003.03
2018-06-10T02:35:36.607Z,1003.01
2018-06-10T02:36:36.608Z,1002.98
2018-06-10T02:37:36.609Z,1002.97
2018-06-10T02:38:36.609Z,1002.92
2018-06-10T02:39:36.605Z,1002.95
2018-06-10T02:40:36.611Z,1002.94
2018-06-10T02:41:36.616Z,1002.90
2018-06-10T02:42:36.615Z,1002.91
2018-06-10T02:43:36.619Z,1002.90
2018-06-10T02:44:36.618Z,1002.86
2018-06-10T02:45:36.617Z,1002.88
2018-06-10T02:46:36.615Z,1002.88
2018-06-10T02:47:36.618Z,1002.87
2018-06-10T02:48:36.620Z,1002.88
2018-06-10T02:49:36.615Z,1002.84
2018-06-10T02:50:36.621Z,1002.88
2018-06-10T02:51:36.624Z,1002.86
2018-06-10T02:52:36.623Z,1002.85
2018-06-10T02:53:36.625Z,1002.80
2018-06-10T02:54:36.622Z,1002.85
2018-06-10T02:55:36.626Z,1002.87
2018-06-10T02:56:36.629Z,1002.83
2018-06-10T02:57:36.628Z,1002.81
2018-06-10T02:58:36.622Z,1002.78
2018-06-10T02:59:36.629Z,1002.76
2018-06-10T03:00:36.631Z,1002.76
2018-06-10T03:01:36.631Z,1002.71
2018-06-10T03:02:36.633Z,1002.73
2018-06-10T03:03:36.628Z,1002.72
2018-06-10T03:04:36.637Z,1002.71
2018-06-10T03:05:36.636Z,1002.72
2018-06-10T03:06:36.634Z,1002.71
2018-06-10T03:07:36.634Z,1002.67
2018-06-10T03:08:36.639Z,1002.67
2018-06-10T03:09:36.639Z,1002.65
2018-06-10T03:10:36.639Z,1002.67
2018-06-10T03:11:36.643Z,1002.65
2018-06-10T03:12:36.646Z,1002.65
2018-06-10T03:13:36.639Z,1002.65
2018-06-10T03:14:36.639Z,1002.64
2018-06-10T03:15:36.641Z,1002.65
2018-06-10T03:16:36.645Z,1002.66
2018-06-10T03:17:36.648Z,1002.63
2018-06-10T03:18:36.644Z,1002.67
2018-06-10T03:19:36.647Z,1002.63
2018-06-10T03:20:36.644Z,1002.70
2018-06-10T03:21:36.650Z,1002.69
2018-06-10T03:22:36.651Z,1002.70
2018-06-10T03:23:36.651Z,1002.70
2018-06-10T03:24:36.655Z,1002.74
2018-06-10T03:25:36.651Z,1002.72
2018-06-10T03:26:36.686Z,1002.71
2018-06-10T03:27:36.649Z,1002.71
2018-06-10T03:28:36.653Z,1002.71
2018-06-10T03:29:36.655Z,1002.72
2018-06-10T03:30:36.650Z,1002.67
2018-06-10T03:31:36.658Z,1002.67
2018-06-10T03:32:36.658Z,1002.68
2018-06-10T03:33:36.658Z,1002.69
2018-06-10T03:34:36.659Z,1002.66
2018-06-10T03:35:36.659Z,1002.63
2018-06-10T03:36:36.656Z,1002.65
2018-06-10T03:37:36.659Z,1002.64
2018-06-10T03:38:36.665Z,1002.66
2018-06-10T03:39:36.665Z,1002.64
2018-06-10T03:40:36.660Z,1002.68
2018-06-10T03:41:36.665Z,1002.71
2018-06-10T03:42:36.666Z,1002.73
2018-06-10T03:43:36.667Z,1002.75
2018-06-10T03:44:36.666Z,1002.72
2018-06-10T03:45:36.667Z,1002.72
2018-06-10T03:46:36.668Z,1002.70
2018-06-10T03:47:36.671Z,1002.70
2018-06-10T03:48:36.671Z,1002.71
2018-06-10T03:49:36.671Z,1002.71
2018-06-10T03:50:36.669Z,1002.66
2018-06-10T03:51:36.673Z,1002.68
2018-06-10T03:52:36.676Z,1002.68
2018-06-10T03:53:36.680Z,1002.70
2018-06-10T03:54:36.671Z,1002.73
2018-06-10T03:55:36.677Z,1002.73
2018-06-10T03:56:36.678Z,1002.74
2018-06-10T03:57:36.678Z,1002.74
2018-06-10T03:58:36.673Z,1002.75
2018-06-10T03:59:36.675Z,1002.71
2018-06-10T04:00:36.680Z,1002.74
2018-06-10T04:01:36.676Z,1002.73
2018-06-10T04:02:36.683Z,1002.75
2018-06-10T04:03:36.681Z,1002.75
2018-06-10T04:04:36.685Z,1002.76
2018-06-10T04:05:36.684Z,1002.81
2018-06-10T04:06:36.685Z,1002.81
2018-06-10T04:07:36.683Z,1002.83
2018-06-10T04:08:36.681Z,1002.81
2018-06-10T04:09:36.691Z,1002.86
2018-06-10T04:10:36.689Z,1002.84
2018-06-10T04:11:36.685Z,1002.86
2018-06-10T04:12:36.691Z,1002.87
2018-06-10T04:13:36.691Z,1002.85
2018-06-10T04:14:36.694Z,1002.81
2018-06-10T04:15:36.689Z,1002.86
2018-06-10T04:16:36.695Z,1002.87
2018-06-10T04:17:36.690Z,1002.80
2018-06-10T04:18:36.690Z,1002.84
2018-06-10T04:19:36.698Z,1002.86
2018-06-10T04:20:36.697Z,1002.83
2018-06-10T04:21:36.693Z,1002.83
2018-06-10T04:22:36.767Z,1002.85
2018-06-10T04:23:36.703Z,1002.86
2018-06-10T04:24:36.702Z,1002.85
2018-06-10T04:25:36.705Z,1002.84
2018-06-10T04:26:36.697Z,1002.88
2018-06-10T04:27:36.698Z,1002.90
2018-06-10T04:28:36.700Z,1002.88
2018-06-10T04:29:36.709Z,1002.89
2018-06-10T04:30:36.709Z,1002.89
2018-06-10T04:31:36.709Z,1002.91
2018-06-10T04:32:36.708Z,1002.85
2018-06-10T04:33:36.704Z,1002.87
2018-06-10T04:34:36.715Z,1002.85
2018-06-10T04:35:36.715Z,1002.83
2018-06-10T04:36:36.713Z,1002.86
2018-06-10T04:37:36.713Z,1002.89
2018-06-10T04:38:36.716Z,1002.89
2018-06-10T04:39:36.714Z,1002.91
2018-06-10T04:40:36.714Z,1002.92
2018-06-10T04:41:36.711Z,1002.92
2018-06-10T04:42:36.718Z,1002.88
2018-06-10T04:43:36.717Z,1002.89
2018-06-10T04:44:36.729Z,1002.89
2018-06-10T04:45:36.720Z,1002.86
2018-06-10T04:46:36.720Z,1002.86
2018-06-10T04:47:36.722Z,1002.87
2018-06-10T04:48:36.725Z,1002.85
2018-06-10T04:49:36.725Z,1002.85
2018-06-10T04:50:36.726Z,1002.88
2018-06-10T04:51:36.726Z,1002.86
2018-06-10T04:52:36.729Z,1002.84
2018-06-10T04:53:36.729Z,1002.84
2018-06-10T04:54:36.727Z,1002.85
2018-06-10T04:55:36.729Z,1002.83
2018-06-10T04:56:36.732Z,1002.84
2018-06-10T04:57:36.731Z,1002.83
2018-06-10T04:58:36.733Z,1002.84
2018-06-10T04:59:36.728Z,1002.87
2018-06-10T05:00:36.735Z,1002.87
2018-06-10T05:01:36.735Z,1002.90
2018-06-10T05:02:36.736Z,1002.90
2018-06-10T05:03:36.734Z,1002.90
2018-06-10T05:04:36.738Z,1002.86
2018-06-10T05:05:36.740Z,1002.84
2018-06-10T05:06:36.741Z,1002.80
2018-06-10T05:07:36.742Z,1002.78
2018-06-10T05:08:36.747Z,1002.81
2018-06-10T05:09:36.744Z,1002.78
2018-06-10T05:10:36.744Z,1002.81
2018-06-10T05:11:36.746Z,1002.82
2018-06-10T05:12:36.742Z,1002.84
2018-06-10T05:13:36.744Z,1002.89
2018-06-10T05:14:36.753Z,1002.95
2018-06-10T05:15:36.748Z,1002.93
2018-06-10T05:16:36.750Z,1002.97
2018-06-10T05:17:36.752Z,1003.00
2018-06-10T05:18:36.753Z,1003.01
2018-06-10T05:19:36.790Z,1003.03
2018-06-10T05:20:36.749Z,1003.05
2018-06-10T05:21:36.752Z,1003.07
2018-06-10T05:22:36.755Z,1003.06
2018-06-10T05:23:36.757Z,1003.03
2018-06-10T05:24:36.757Z,1003.02
2018-06-10T05:25:36.760Z,1003.00
2018-06-10T05:26:36.756Z,1003.05
2018-06-10T05:27:36.758Z,1003.04
2018-06-10T05:28:36.764Z,1003.02
2018-06-10T05:29:36.774Z,1002.97
2018-06-10T05:30:36.764Z,1003.03
2018-06-10T05:31:36.760Z,1003.01
2018-06-10T05:32:36.767Z,1002.98
2018-06-10T05:33:36.767Z,1003.00
2018-06-10T05:34:36.770Z,1003.01
2018-06-10T05:35:36.768Z,1003.01
2018-06-10T05:36:36.770Z,1002.99
2018-06-10T05:37:36.771Z,1002.98
2018-06-10T05:38:36.772Z,1003.02
2018-06-10T05:39:36.774Z,1003.04
2018-06-10T05:40:36.778Z,1003.02
2018-06-10T05:41:36.772Z,1003.01
2018-06-10T05:42:36.779Z,1003.05
2018-06-10T05:43:36.778Z,1003.07
2018-06-10T05:44:36.780Z,1003.06
2018-06-10T05:45:36.782Z,1003.07
2018-06-10T05:46:36.782Z,1003.02
2018-06-10T05:47:36.783Z,1003.06
2018-06-10T05:48:36.785Z,1003.03
2018-06-10T05:49:36.785Z,1003.06
2018-06-10T05:50:36.786Z,1003.11
2018-06-10T05:51:36.784Z,1003.10
2018-06-10T05:52:36.790Z,1003.10
2018-06-10T05:53:36.791Z,1003.13
2018-06-10T05:54:36.793Z,1003.15
2018-06-10T05:55:36.791Z,1003.11
2018-06-10T05:56:36.794Z,1003.18
2018-06-10T05:57:36.791Z,1003.16
2018-06-10T05:58:36.800Z,1003.16
2018-06-10T05:59:36.801Z,1003.20
2018-06-10T06:00:36.802Z,1003.20
2018-06-10T06:01:36.801Z,1003.24
2018-06-10T06:02:36.805Z,1003.20
2018-06-10T06:03:36.805Z,1003.18
2018-06-10T06:04:36.803Z,1003.22
2018-06-10T06:05:36.803Z,1003.20
2018-06-10T06:06:36.809Z,1003.21
2018-06-10T06:07:36.817Z,1003.23
2018-06-10T06:08:36.816Z,1003.27
2018-06-10T06:09:36.815Z,1003.34
2018-06-10T06:10:36.815Z,1003.30
2018-06-10T06:11:36.813Z,1003.31
2018-06-10T06:12:36.819Z,1003.33
2018-06-10T06:13:36.815Z,1003.31
2018-06-10T06:14:36.821Z,1003.31
2018-06-10T06:15:36.831Z,1003.28
2018-06-10T06:16:36.825Z,1003.30
2018-06-10T06:17:36.820Z,1003.31
2018-06-10T06:18:36.828Z,1003.34
2018-06-10T06:19:36.828Z,1003.34
2018-06-10T06:20:36.832Z,1003.34
2018-06-10T06:21:36.827Z,1003.37
2018-06-10T06:22:36.836Z,1003.38
2018-06-10T06:23:36.835Z,1003.42
2018-06-10T06:24:36.840Z,1003.39
2018-06-10T06:25:36.838Z,1003.33
2018-06-10T06:26:36.840Z,1003.34
2018-06-10T06:27:36.843Z,1003.31
2018-06-10T06:28:36.841Z,1003.28
2018-06-10T06:29:36.845Z,1003.26
2018-06-10T06:30:36.844Z,1003.25
2018-06-10T06:31:36.847Z,1003.29
2018-06-10T06:32:36.848Z,1003.29
2018-06-10T06:33:36.848Z,1003.32
2018-06-10T06:34:36.852Z,1003.39
2018-06-10T06:35:36.853Z,1003.39
2018-06-10T06:36:36.867Z,1003.37
2018-06-10T06:37:36.859Z,1003.38
2018-06-10T06:38:36.856Z,1003.36
2018-06-10T06:39:36.865Z,1003.42
2018-06-10T06:40:36.854Z,1003.44
2018-06-10T06:41:36.856Z,1003.38
2018-06-10T06:42:36.860Z,1003.42
2018-06-10T06:43:36.865Z,1003.41
2018-06-10T06:44:36.869Z,1003.43
2018-06-10T06:45:36.867Z,1003.43
2018-06-10T06:46:36.869Z,1003.42
2018-06-10T06:47:36.869Z,1003.40
2018-06-10T06:48:36.871Z,1003.47
2018-06-10T06:49:36.870Z,1003.43
2018-06-10T06:50:36.871Z,1003.40
2018-06-10T06:51:36.876Z,1003.38
2018-06-10T06:52:36.932Z,1003.40
2018-06-10T06:53:36.877Z,1003.38
2018-06-10T06:54:36.881Z,1003.36
2018-06-10T06:55:36.880Z,1003.42
2018-06-10T06:56:36.883Z,1003.40
2018-06-10T06:57:36.880Z,1003.43
2018-06-10T06:58:36.886Z,1003.46
2018-06-10T06:59:36.887Z,1003.44
2018-06-10T07:00:36.888Z,1003.45
2018-06-10T07:01:36.890Z,1003.45
2018-06-10T07:02:36.885Z,1003.46
2018-06-10T07:03:36.891Z,1003.43
2018-06-10T07:04:36.903Z,1003.43
2018-06-10T07:05:36.896Z,1003.42
2018-06-10T07:06:36.895Z,1003.40
2018-06-10T07:07:36.898Z,1003.38
2018-06-10T07:08:36.900Z,1003.41
2018-06-10T07:09:36.901Z,1003.39
2018-06-10T07:10:36.903Z,1003.42
2018-06-10T07:11:36.904Z,1003.45
2018-06-10T07:12:36.904Z,1003.48
2018-06-10T07:13:36.906Z,1003.43
2018-06-10T07:14:36.910Z,1003.45
2018-06-10T07:15:36.911Z,1003.42
2018-06-10T07:16:36.911Z,1003.41
2018-06-10T07:17:36.915Z,1003.40
2018-06-10T07:18:36.911Z,1003.41
2018-06-10T07:19:36.921Z,1003.48
2018-06-10T07:20:36.918Z,1003.43
2018-06-10T07:21:36.917Z,1003.44
2018-06-10T07:22:37.565Z,1003.45
2018-06-10T07:23:36.974Z,1003.47
2018-06-10T07:24:36.927Z,1003.46
2018-06-10T07:25:36.928Z,1003.48
2018-06-10T07:26:36.931Z,1003.47
2018-06-10T07:27:36.933Z,1003.45
2018-06-10T07:28:36.928Z,1003.44
2018-06-10T07:29:36.931Z,1003.48
2018-06-10T07:30:36.936Z,1003.50
2018-06-10T07:31:36.930Z,1003.47
2018-06-10T07:32:36.936Z,1003.49
2018-06-10T07:33:36.941Z,1003.50
2018-06-10T07:34:36.940Z,1003.52
2018-06-10T07:35:36.946Z,1003.55
2018-06-10T07:36:36.941Z,1003.55
2018-06-10T07:37:36.945Z,1003.55
2018-06-10T07:38:36.944Z,1003.56
2018-06-10T07:39:36.947Z,1003.55
2018-06-10T07:40:36.995Z,1003.54
2018-06-10T07:41:36.947Z,1003.48
2018-06-10T07:42:36.951Z,1003.50
2018-06-10T07:43:37.576Z,1003.50
2018-06-10T07:44:36.956Z,1003.49
2018-06-10T07:45:36.962Z,1003.48
2018-06-10T07:46:36.957Z,1003.47
2018-06-10T07:47:36.962Z,1003.44
2018-06-10T07:48:36.968Z,1003.46
2018-06-10T07:49:36.968Z,1003.46
2018-06-10T07:50:36.966Z,1003.44
2018-06-10T07:51:36.969Z,1003.46
2018-06-10T07:52:36.974Z,1003.41
2018-06-10T07:53:36.975Z,1003.45
2018-06-10T07:54:36.975Z,1003.44
2018-06-10T07:55:36.991Z,1003.45
2018-06-10T07:56:36.977Z,1003.46
2018-06-10T07:57:36.981Z,1003.44
2018-06-10T07:58:36.979Z,1003.43
2018-06-10T07:59:36.982Z,1003.45
2018-06-10T08:00:36.990Z,1003.45
2018-06-10T08:01:36.988Z,1003.43
2018-06-10T08:02:36.997Z,1003.42
2018-06-10T08:03:36.993Z,1003.45
2018-06-10T08:04:36.991Z,1003.41
2018-06-10T08:05:37.000Z,1003.38
2018-06-10T08:06:36.997Z,1003.38
2018-06-10T08:07:36.999Z,1003.41
2018-06-10T08:08:37.003Z,1003.43
2018-06-10T08:09:37.004Z,1003.37
2018-06-10T08:10:37.018Z,1003.35
2018-06-10T08:11:37.008Z,1003.32
2018-06-10T08:12:37.010Z,1003.32
2018-06-10T08:13:37.011Z,1003.35
2018-06-10T08:14:37.010Z,1003.34
2018-06-10T08:15:37.016Z,1003.24
2018-06-10T08:16:37.016Z,1003.33
2018-06-10T08:17:37.019Z,1003.29
2018-06-10T08:18:37.037Z,1003.26
2018-06-10T08:19:37.020Z,1003.24
2018-06-10T08:20:37.025Z,1003.22
2018-06-10T08:21:37.027Z,1003.24
2018-06-10T08:22:37.030Z,1003.21
2018-06-10T08:23:37.029Z,1003.23
2018-06-10T08:24:37.029Z,1003.24
2018-06-10T08:25:37.032Z,1003.27
2018-06-10T08:26:37.038Z,1003.32
2018-06-10T08:27:37.040Z,1003.33
2018-06-10T08:28:37.045Z,1003.29
2018-06-10T08:29:37.048Z,1003.29
2018-06-10T08:30:37.049Z,1003.32
2018-06-10T08:31:37.046Z,1003.30
2018-06-10T08:32:37.046Z,1003.28
2018-06-10T08:33:37.053Z,1003.24
2018-06-10T08:34:37.055Z,1003.27
2018-06-10T08:35:37.055Z,1003.28
2018-06-10T08:36:37.060Z,1003.28
2018-06-10T08:37:37.062Z,1003.28
2018-06-10T08:38:37.059Z,1003.27
2018-06-10T08:39:37.066Z,1003.28
2018-06-10T08:40:37.066Z,1003.28
2018-06-10T08:41:37.071Z,1003.24
2018-06-10T08:42:37.069Z,1003.27
2018-06-10T08:43:37.074Z,1003.23
2018-06-10T08:44:37.076Z,1003.21
2018-06-10T08:45:37.078Z,1003.19
2018-06-10T08:46:37.076Z,1003.19
2018-06-10T08:47:37.077Z,1003.13
2018-06-10T08:48:37.086Z,1003.16
2018-06-10T08:49:37.089Z,1003.10
2018-06-10T08:50:37.124Z,1003.12
2018-06-10T08:51:37.097Z,1003.09
2018-06-10T08:52:37.096Z,1003.10
2018-06-10T08:53:37.100Z,1003.15
2018-06-10T08:54:37.101Z,1003.14
2018-06-10T08:55:37.101Z,1003.11
2018-06-10T08:56:37.105Z,1003.11
2018-06-10T08:57:37.106Z,1003.11
2018-06-10T08:58:37.106Z,1003.10
2018-06-10T08:59:37.113Z,1003.14
2018-06-10T09:00:37.117Z,1003.13
2018-06-10T09:01:37.117Z,1003.12
2018-06-10T09:02:37.145Z,1003.13
2018-06-10T09:03:37.123Z,1003.10
2018-06-10T09:04:37.121Z,1003.12
2018-06-10T09:05:37.127Z,1003.11
2018-06-10T09:06:37.132Z,1003.11
2018-06-10T09:07:37.132Z,1003.12
2018-06-10T09:08:37.213Z,1003.14
2018-06-10T09:09:37.143Z,1003.09
2018-06-10T09:10:37.140Z,1003.12
2018-06-10T09:11:37.142Z,1003.15
2018-06-10T09:12:37.146Z,1003.15
2018-06-10T09:13:37.144Z,1003.13
2018-06-10T09:14:37.145Z,1003.14
2018-06-10T09:15:37.154Z,1003.14
2018-06-10T09:16:37.158Z,1003.13
2018-06-10T09:17:37.159Z,1003.14
2018-06-10T09:18:37.157Z,1003.12
2018-06-10T09:19:37.160Z,1003.12
2018-06-10T09:20:37.169Z,1003.11
2018-06-10T09:21:37.171Z,1003.12
2018-06-10T09:22:37.174Z,1003.06
2018-06-10T09:23:37.177Z,1003.02
2018-06-10T09:24:37.176Z,1002.99
2018-06-10T09:25:37.179Z,1003.01
2018-06-10T09:26:37.184Z,1003.02
2018-06-10T09:27:37.187Z,1003.05
2018-06-10T09:28:37.187Z,1003.08
2018-06-10T09:29:37.200Z,1003.13
2018-06-10T09:30:37.235Z,1003.10
2018-06-10T09:31:37.202Z,1003.12
2018-06-10T09:32:37.205Z,1003.11
2018-06-10T09:33:37.208Z,1003.11
2018-06-10T09:34:37.213Z,1003.19
2018-06-10T09:35:37.211Z,1003.17
2018-06-10T09:36:37.220Z,1003.14
2018-06-10T09:37:37.218Z,1003.18
2018-06-10T09:38:37.218Z,1003.18
2018-06-10T09:39:37.220Z,1003.16
2018-06-10T09:40:37.224Z,1003.17
2018-06-10T09:41:37.231Z,1003.13
2018-06-10T09:42:37.232Z,1003.18
2018-06-10T09:43:37.235Z,1003.17
2018-06-10T09:44:37.240Z,1003.14
2018-06-10T09:45:37.243Z,1003.13
2018-06-10T09:46:37.247Z,1003.14
2018-06-10T09:47:37.251Z,1003.18
2018-06-10T09:48:37.252Z,1003.13
2018-06-10T09:49:37.255Z,1003.15
2018-06-10T09:50:37.257Z,1003.10
2018-06-10T09:51:37.257Z,1003.06
2018-06-10T09:52:37.259Z,1003.00
2018-06-10T09:53:37.261Z,1003.01
2018-06-10T09:54:37.263Z,1002.98
2018-06-10T09:55:37.395Z,1003.00
2018-06-10T09:56:37.272Z,1003.05
2018-06-10T09:57:37.275Z,1002.99
2018-06-10T09:58:37.280Z,1003.00
2018-06-10T09:59:37.287Z,1003.01
2018-06-10T10:00:37.282Z,1002.98
2018-06-10T10:01:37.289Z,1003.03
2018-06-10T10:02:37.294Z,1003.05
2018-06-10T10:03:37.294Z,1003.02
2018-06-10T10:04:37.294Z,1003.04
2018-06-10T10:05:37.297Z,1003.01
2018-06-10T10:06:37.305Z,1003.00
2018-06-10T10:07:37.312Z,1003.03
2018-06-10T10:08:37.307Z,1003.04
2018-06-10T10:09:37.315Z,1003.06
2018-06-10T10:10:37.312Z,1003.07
2018-06-10T10:11:37.321Z,1003.10
2018-06-10T10:12:37.323Z,1003.12
2018-06-10T10:13:37.328Z,1003.10
2018-06-10T10:14:37.363Z,1003.08
2018-06-10T10:15:37.336Z,1003.13
2018-06-10T10:16:37.340Z,1003.08
2018-06-10T10:17:37.341Z,1003.07
2018-06-10T10:18:37.343Z,1003.07
2018-06-10T10:19:37.346Z,1003.00
2018-06-10T10:20:37.351Z,1003.05
2018-06-10T10:21:37.352Z,1003.05
2018-06-10T10:22:37.357Z,1003.05
2018-06-10T10:23:37.360Z,1003.02
2018-06-10T10:24:37.361Z,1003.02
2018-06-10T10:25:37.418Z,1003.00
2018-06-10T10:26:37.370Z,1003.00
2018-06-10T10:27:37.372Z,1003.05
2018-06-10T10:28:37.375Z,1003.02
2018-06-10T10:29:37.380Z,1003.02
2018-06-10T10:30:37.381Z,1003.02
2018-06-10T10:31:37.386Z,1003.03
2018-06-10T10:32:37.389Z,1003.02
2018-06-10T10:33:37.391Z,1002.98
2018-06-10T10:34:37.397Z,1003.01
2018-06-10T10:35:37.395Z,1002.97
2018-06-10T10:36:37.403Z,1002.92
2018-06-10T10:37:37.402Z,1002.94
2018-06-10T10:38:37.518Z,1002.91
2018-06-10T10:39:37.405Z,1002.90
2018-06-10T10:40:37.414Z,1002.94
2018-06-10T10:41:37.412Z,1002.94
2018-06-10T10:42:37.415Z,1002.93
2018-06-10T10:43:37.415Z,1002.96
2018-06-10T10:44:37.419Z,1002.93
2018-06-10T10:45:37.424Z,1002.94
2018-06-10T10:46:38.137Z,1002.92
2018-06-10T10:47:37.426Z,1002.94
2018-06-10T10:48:37.432Z,1002.93
2018-06-10T10:49:37.432Z,1002.93
2018-06-10T10:50:37.435Z,1002.90
2018-06-10T10:51:37.434Z,1002.90
2018-06-10T10:52:37.438Z,1002.93
2018-06-10T10:53:37.445Z,1002.88
2018-06-10T10:54:37.448Z,1002.93
2018-06-10T10:55:37.450Z,1002.93
2018-06-10T10:56:37.455Z,1002.87
2018-06-10T10:57:37.453Z,1002.91
2018-06-10T10:58:37.461Z,1002.95
2018-06-10T10:59:37.462Z,1002.88
2018-06-10T11:00:37.469Z,1002.91
2018-06-10T11:01:37.468Z,1002.92
2018-06-10T11:02:37.469Z,1002.90
2018-06-10T11:03:37.478Z,1002.87
2018-06-10T11:04:37.482Z,1002.85
2018-06-10T11:05:37.485Z,1002.87
2018-06-10T11:06:37.487Z,1002.87
2018-06-10T11:07:37.484Z,1002.85
2018-06-10T11:08:37.491Z,1002.80
2018-06-10T11:09:37.496Z,1002.85
2018-06-10T11:10:37.498Z,1002.84
2018-06-10T11:11:37.501Z,1002.83
2018-06-10T11:12:37.505Z,1002.81
2018-06-10T11:13:37.509Z,1002.77
2018-06-10T11:14:37.519Z,1002.80
2018-06-10T11:15:37.515Z,1002.75
2018-06-10T11:16:37.522Z,1002.73
2018-06-10T11:17:37.523Z,1002.72
2018-06-10T11:18:37.531Z,1002.64
2018-06-10T11:19:37.530Z,1002.72
2018-06-10T11:20:37.534Z,1002.72
2018-06-10T11:21:37.541Z,1002.72
2018-06-10T11:22:37.548Z,1002.70
2018-06-10T11:23:37.545Z,1002.63
2018-06-10T11:24:37.553Z,1002.67
2018-06-10T11:25:37.553Z,1002.64
2018-06-10T11:26:37.556Z,1002.69
2018-06-10T11:27:37.562Z,1002.59
2018-06-10T11:28:37.565Z,1002.66
2018-06-10T11:29:37.565Z,1002.70
2018-06-10T11:30:37.576Z,1002.73
2018-06-10T11:31:37.579Z,1002.72
2018-06-10T11:32:37.579Z,1002.82
2018-06-10T11:33:37.583Z,1002.81
2018-06-10T11:34:37.594Z,1002.80
2018-06-10T11:35:37.595Z,1002.81
2018-06-10T11:36:37.600Z,1002.78
2018-06-10T11:37:37.606Z,1002.73
2018-06-10T11:38:37.609Z,1002.73
2018-06-10T11:39:37.614Z,1002.73
2018-06-10T11:40:37.622Z,1002.73
2018-06-10T11:41:37.630Z,1002.74
2018-06-10T11:42:37.704Z,1002.77
2018-06-10T11:43:37.635Z,1002.73
2018-06-10T11:44:37.644Z,1002.71
2018-06-10T11:45:37.653Z,1002.65
2018-06-10T11:46:37.657Z,1002.66
2018-06-10T11:47:37.662Z,1002.62
2018-06-10T11:48:37.668Z,1002.65
2018-06-10T11:49:37.671Z,1002.62
2018-06-10T11:50:37.683Z,1002.68
2018-06-10T11:51:37.689Z,1002.55
2018-06-10T11:52:37.689Z,1002.59
2018-06-10T11:53:37.696Z,1002.60
2018-06-10T11:54:37.706Z,1002.58
2018-06-10T11:55:37.711Z,1002.53
2018-06-10T11:56:37.719Z,1002.53
2018-06-10T11:57:37.725Z,1002.56
2018-06-10T11:58:37.729Z,1002.56
2018-06-10T11:59:37.738Z,1002.52
2018-06-10T12:00:37.746Z,1002.52
2018-06-10T12:01:37.755Z,1002.34
2018-06-10T12:02:37.759Z,1002.40
2018-06-10T12:03:37.766Z,1002.45
2018-06-10T12:04:37.772Z,1002.38
2018-06-10T12:05:37.782Z,1002.39